Time,TemperatureF,DewpointF,PressureIn,WindDirection,WindDirectionDegrees,WindSpeedMPH,WindSpeedGustMPH,Humidity,HourlyPrecipIn,Conditions,Clouds,dailyrainin,SoftwareType,DateUTC
2013-01-26 00:00:00,37.7,30.2,29.35,NW,314,0.0,0.0,74,0.00,,---,0.00,VWS V14.00,2013-01-26 06:00:00,
2013-01-26 00:03:00,37.7,30.2,29.35,NW,314,0.0,0.0,74,0.00,,---,0.00,VWS V14.00,2013-01-26 06:03:00,
2013-01-26 00:04:00,37.7,30.2,29.35,NW,314,0.0,0.0,74,0.00,,---,0.00,VWS V14.00,2013-01-26 06:04:00,
2013-01-26 00:06:00,37.7,30.2,29.35,NW,314,0.0,0.0,74,0.00,,---,0.00,VWS V14.00,2013-01-26 06:06:00,
2013-01-26 00:09:00,37.7,30.2,29.35,NW,314,0.0,0.0,74,0.00,,---,0.00,VWS V14.00,2013-01-26 06:09:00,
2013-01-26 00:15:00,37.7,30.2,29.38,NW,314,0.0,0.0,74,0.00,,---,0.00,VWS V14.00,2013-01-26 06:15:00,
2013-01-26 00:18:00,37.7,30.2,29.38,NW,314,0.0,0.0,74,0.00,,---,0.00,VWS V14.00,2013-01-26 06:18:00,
2013-01-26 00:24:00,37.7,30.2,29.38,NW,314,0.0,0.0,74,0.00,,---,0.00,VWS V14.00,2013-01-26 06:24:00,
2013-01-26 00:30:00,37.7,30.2,29.38,NW,317,0.0,0.0,74,0.00,,---,0.00,VWS V14.00,2013-01-26 06:30:00,
2013-01-26 00:34:00,37.7,30.2,29.38,NW,317,0.0,0.0,74,0.00,,---,0.00,VWS V14.00,2013-01-26 06:34:00,
2013-01-26 00:36:00,37.7,30.2,29.38,NW,317,0.0,0.0,74,0.00,,---,0.00,VWS V14.00,2013-01-26 06:36:00,
2013-01-26 00:39:00,37.7,30.2,29.38,NW,317,0.0,0.0,74,0.00,,---,0.00,VWS V14.00,2013-01-26 06:39:00,
2013-01-26 00:42:00,37.7,30.2,29.38,NW,317,0.0,0.0,74,0.00,,---,0.00,VWS V14.00,2013-01-26 06:42:00,
2013-01-26 00:45:00,37.7,30.2,29.38,NW,317,0.0,0.0,74,0.00,,---,0.00,VWS V14.00,2013-01-26 06:45:00,
2013-01-26 00:48:00,37.7,30.2,29.38,NW,317,0.0,0.0,74,0.00,,---,0.00,VWS V14.00,2013-01-26 06:48:00,
2013-01-26 00:49:00,37.7,30.2,29.38,NW,317,0.0,0.0,74,0.00,,---,0.00,VWS V14.00,2013-01-26 06:49:00,
2013-01-26 00:55:00,37.7,30.2,29.38,NW,317,0.0,0.0,74,0.00,,---,0.00,VWS V14.00,2013-01-26 06:55:00,
2013-01-26 00:58:00,37.7,30.2,29.38,NW,317,0.0,0.0,74,0.00,,---,0.00,VWS V14.00,2013-01-26 06:58:00,
2013-01-26 01:01:00,37.7,30.2,29.38,NW,317,0.0,0.0,74,0.00,,---,0.00,VWS V14.00,2013-01-26 07:01:00,
2013-01-26 01:04:00,37.7,30.2,29.38,NW,317,0.0,0.0,74,0.00,,---,0.00,VWS V14.00,2013-01-26 07:04:00,
2013-01-26 01:07:00,37.7,30.2,29.38,NW,317,0.0,0.0,74,0.00,,---,0.00,VWS V14.00,2013-01-26 07:07:00,
2013-01-26 01:13:00,37.7,30.2,29.38,NW,317,0.0,0.0,74,0.00,,---,0.00,VWS V14.00,2013-01-26 07:13:00,
2013-01-26 01:19:00,37.7,30.2,29.38,NW,317,0.0,0.0,74,0.00,,---,0.00,VWS V14.00,2013-01-26 07:19:00,
2013-01-26 01:22:00,37.7,30.2,29.38,NW,317,0.0,0.0,74,0.00,,---,0.00,VWS V14.00,2013-01-26 07:22:00,
2013-01-26 01:25:00,37.7,30.2,29.38,NW,317,0.0,0.0,74,0.00,,---,0.00,VWS V14.00,2013-01-26 07:25:00,
2013-01-26 01:28:00,37.7,30.2,29.38,NW,317,0.0,0.0,74,0.00,,---,0.00,VWS V14.00,2013-01-26 07:28:00,
2013-01-26 01:34:00,37.7,30.2,29.38,NW,317,0.0,0.0,74,0.00,,---,0.00,VWS V14.00,2013-01-26 07:34:00,
2013-01-26 01:37:00,37.7,30.2,29.38,NW,317,0.0,0.0,74,0.00,,---,0.00,VWS V14.00,2013-01-26 07:37:00,
2013-01-26 01:40:00,37.7,30.2,29.38,NW,317,0.0,0.0,74,0.00,,---,0.00,VWS V14.00,2013-01-26 07:40:00,
2013-01-26 01:43:00,34.5,29.6,29.38,NW,317,0.0,0.0,82,0.00,,---,0.00,VWS V14.00,2013-01-26 07:43:00,
2013-01-26 01:46:00,34.5,29.6,29.38,NW,317,0.0,0.0,82,0.00,,---,0.00,VWS V14.00,2013-01-26 07:46:00,
2013-01-26 01:49:00,34.5,29.6,29.38,NNW,330,0.0,0.0,82,0.00,,---,0.00,VWS V14.00,2013-01-26 07:49:00,
2013-01-26 01:55:00,34.5,29.6,29.38,NNW,331,0.0,0.0,82,0.00,,---,0.00,VWS V14.00,2013-01-26 07:55:00,
2013-01-26 02:01:00,34.5,29.6,29.38,NNW,331,0.0,0.0,82,0.00,,---,0.00,VWS V14.00,2013-01-26 08:01:00,
2013-01-26 02:04:00,34.5,29.6,29.38,NNW,331,0.0,0.0,82,0.00,,---,0.00,VWS V14.00,2013-01-26 08:04:00,
2013-01-26 02:07:00,34.5,29.6,29.38,NNW,331,0.0,0.0,82,0.00,,---,0.00,VWS V14.00,2013-01-26 08:07:00,
2013-01-26 02:10:00,34.5,29.6,29.38,NNW,331,0.0,0.0,82,0.00,,---,0.00,VWS V14.00,2013-01-26 08:10:00,
2013-01-26 02:13:00,34.5,29.6,29.38,NNW,331,0.0,0.0,82,0.00,,---,0.00,VWS V14.00,2013-01-26 08:13:00,
2013-01-26 02:19:00,34.5,29.6,29.38,NNW,332,0.0,0.0,82,0.00,,---,0.00,VWS V14.00,2013-01-26 08:19:00,
2013-01-26 02:22:00,34.5,29.6,29.38,North,349,0.0,0.0,82,0.00,,---,0.00,VWS V14.00,2013-01-26 08:22:00,
2013-01-26 02:25:00,34.5,29.6,29.38,North,349,0.0,0.0,82,0.00,,---,0.00,VWS V14.00,2013-01-26 08:25:00,
2013-01-26 02:28:00,34.5,29.6,29.38,North,350,0.0,0.0,82,0.00,,---,0.00,VWS V14.00,2013-01-26 08:28:00,
2013-01-26 02:34:00,33.4,28.8,29.38,North,350,0.0,0.0,83,0.00,,---,0.00,VWS V14.00,2013-01-26 08:34:00,
2013-01-26 02:40:00,33.4,28.8,29.38,North,350,0.0,0.0,83,0.00,,---,0.00,VWS V14.00,2013-01-26 08:40:00,
2013-01-26 02:43:00,33.4,28.8,29.38,North,350,0.0,0.0,83,0.00,,---,0.00,VWS V14.00,2013-01-26 08:43:00,
2013-01-26 02:46:00,33.4,28.8,29.38,North,350,0.0,0.0,83,0.00,,---,0.00,VWS V14.00,2013-01-26 08:46:00,
2013-01-26 02:49:00,33.4,28.8,29.38,West,278,0.0,0.0,83,0.00,,---,0.00,VWS V14.00,2013-01-26 08:49:00,
2013-01-26 02:52:00,33.4,28.8,29.38,West,278,0.0,0.0,83,0.00,,---,0.00,VWS V14.00,2013-01-26 08:52:00,
2013-01-26 02:58:00,33.4,28.8,29.38,West,278,0.0,0.0,83,0.00,,---,0.00,VWS V14.00,2013-01-26 08:58:00,
2013-01-26 03:01:00,33.4,28.8,29.38,West,278,0.0,0.0,83,0.00,,---,0.00,VWS V14.00,2013-01-26 09:01:00,
2013-01-26 03:04:00,33.4,28.8,29.38,West,278,0.0,0.0,83,0.00,,---,0.00,VWS V14.00,2013-01-26 09:04:00,
2013-01-26 03:10:00,33.4,28.8,29.38,West,278,0.0,0.0,83,0.00,,---,0.00,VWS V14.00,2013-01-26 09:10:00,
2013-01-26 03:16:00,33.4,28.8,29.38,West,278,0.0,0.0,83,0.00,,---,0.00,VWS V14.00,2013-01-26 09:16:00,
2013-01-26 03:19:00,33.4,28.8,29.38,West,278,0.0,0.0,83,0.00,,---,0.00,VWS V14.00,2013-01-26 09:19:00,
2013-01-26 03:22:00,33.4,28.8,29.38,West,278,0.0,0.0,83,0.00,,---,0.00,VWS V14.00,2013-01-26 09:22:00,
2013-01-26 03:28:00,33.8,29.2,29.38,West,278,0.0,0.0,83,0.00,,---,0.00,VWS V14.00,2013-01-26 09:28:00,
2013-01-26 03:31:00,33.8,29.2,29.38,NW,312,0.0,0.0,83,0.00,,---,0.00,VWS V14.00,2013-01-26 09:31:00,
2013-01-26 03:37:00,33.8,29.2,29.38,NW,317,0.0,0.0,83,0.00,,---,0.00,VWS V14.00,2013-01-26 09:37:00,
2013-01-26 03:43:00,33.8,29.2,29.38,NW,317,0.0,0.0,83,0.00,,---,0.00,VWS V14.00,2013-01-26 09:43:00,
2013-01-26 03:46:00,33.8,29.2,29.38,NW,317,0.0,0.0,83,0.00,,---,0.00,VWS V14.00,2013-01-26 09:46:00,
2013-01-26 03:49:00,33.8,29.2,29.38,NW,317,0.0,0.0,83,0.00,,---,0.00,VWS V14.00,2013-01-26 09:49:00,
2013-01-26 03:55:00,33.8,29.2,29.38,NW,317,0.0,0.0,83,0.00,,---,0.00,VWS V14.00,2013-01-26 09:55:00,
2013-01-26 04:01:00,33.1,29.0,29.38,NW,317,0.0,0.0,85,0.00,,---,0.00,VWS V14.00,2013-01-26 10:01:00,
2013-01-26 04:04:00,33.1,29.0,29.38,NW,320,0.0,0.0,85,0.00,,---,0.00,VWS V14.00,2013-01-26 10:04:00,
2013-01-26 04:10:00,32.9,29.2,29.38,NW,318,0.0,0.0,86,0.00,,---,0.00,VWS V14.00,2013-01-26 10:10:00,
2013-01-26 04:16:00,32.9,29.2,29.38,NW,318,0.0,0.0,86,0.00,,---,0.00,VWS V14.00,2013-01-26 10:16:00,
2013-01-26 04:19:00,32.9,29.2,29.38,NW,319,0.0,0.0,86,0.00,,---,0.00,VWS V14.00,2013-01-26 10:19:00,
2013-01-26 04:25:00,32.9,29.2,29.38,NW,319,0.0,0.0,86,0.00,,---,0.00,VWS V14.00,2013-01-26 10:25:00,
2013-01-26 04:28:00,32.9,29.2,29.38,NNW,337,0.0,0.0,86,0.00,,---,0.00,VWS V14.00,2013-01-26 10:28:00,
2013-01-26 04:34:00,32.9,29.2,29.38,NNW,339,0.0,0.0,86,0.00,,---,0.00,VWS V14.00,2013-01-26 10:34:00,
2013-01-26 04:37:00,32.9,29.2,29.38,NNW,339,0.0,0.0,86,0.00,,---,0.00,VWS V14.00,2013-01-26 10:37:00,
2013-01-26 04:40:00,32.9,29.2,29.38,NNW,339,0.0,0.0,86,0.00,,---,0.00,VWS V14.00,2013-01-26 10:40:00,
2013-01-26 04:43:00,32.9,29.2,29.38,NNW,339,0.0,0.0,86,0.00,,---,0.00,VWS V14.00,2013-01-26 10:43:00,
2013-01-26 04:49:00,32.9,29.2,29.38,NNW,339,0.0,0.0,86,0.00,,---,0.00,VWS V14.00,2013-01-26 10:49:00,
2013-01-26 04:55:00,32.3,28.9,29.38,NNW,339,0.0,0.0,87,0.00,,---,0.00,VWS V14.00,2013-01-26 10:55:00,
2013-01-26 04:58:00,32.2,28.7,29.38,NNW,339,0.0,0.0,87,0.00,,---,0.00,VWS V14.00,2013-01-26 10:58:00,
2013-01-26 05:01:00,32.2,28.7,29.38,NNW,339,0.0,0.0,87,0.00,,---,0.00,VWS V14.00,2013-01-26 11:01:00,
2013-01-26 05:04:00,32.2,28.7,29.38,NNW,339,0.0,0.0,87,0.00,,---,0.00,VWS V14.00,2013-01-26 11:04:00,
2013-01-26 05:07:00,32.2,28.7,29.38,NNW,339,0.0,0.0,87,0.00,,---,0.00,VWS V14.00,2013-01-26 11:07:00,
2013-01-26 05:10:00,32.2,28.7,29.38,NNW,339,0.0,0.0,87,0.00,,---,0.00,VWS V14.00,2013-01-26 11:10:00,
2013-01-26 05:13:00,32.2,28.7,29.38,NNW,339,0.0,0.0,87,0.00,,---,0.00,VWS V14.00,2013-01-26 11:13:00,
2013-01-26 05:16:00,32.2,28.7,29.38,NNW,340,0.0,0.0,87,0.00,,---,0.00,VWS V14.00,2013-01-26 11:16:00,
2013-01-26 05:19:00,32.2,28.7,29.38,NNW,340,0.0,0.0,87,0.00,,---,0.00,VWS V14.00,2013-01-26 11:19:00,
2013-01-26 05:22:00,32.2,28.7,29.38,NNW,341,0.0,0.0,87,0.00,,---,0.00,VWS V14.00,2013-01-26 11:22:00,
2013-01-26 05:28:00,32.2,28.7,29.38,NNW,341,0.0,0.0,87,0.00,,---,0.00,VWS V14.00,2013-01-26 11:28:00,
2013-01-26 05:31:00,31.8,28.4,29.38,NNW,341,0.0,0.0,87,0.00,,---,0.00,VWS V14.00,2013-01-26 11:31:00,
2013-01-26 05:34:00,31.8,28.4,29.38,North,353,0.0,0.0,87,0.00,,---,0.00,VWS V14.00,2013-01-26 11:34:00,
2013-01-26 05:40:00,31.3,28.1,29.38,North,353,0.0,0.0,88,0.00,,---,0.00,VWS V14.00,2013-01-26 11:40:00,
2013-01-26 05:46:00,31.3,28.1,29.38,North,353,0.0,0.0,88,0.00,,---,0.00,VWS V14.00,2013-01-26 11:46:00,
2013-01-26 05:53:00,31.3,28.1,29.38,North,0,0.0,0.0,88,0.00,,---,0.00,VWS V14.00,2013-01-26 11:53:00,
2013-01-26 05:56:00,31.3,28.1,29.38,North,0,0.0,0.0,88,0.00,,---,0.00,VWS V14.00,2013-01-26 11:56:00,
2013-01-26 06:02:00,31.3,28.1,29.38,North,0,0.0,0.0,88,0.00,,---,0.00,VWS V14.00,2013-01-26 12:02:00,
2013-01-26 06:04:00,31.3,28.1,29.38,North,0,0.0,0.0,88,0.00,,---,0.00,VWS V14.00,2013-01-26 12:04:00,
2013-01-26 06:11:00,31.6,28.5,29.38,North,357,0.0,0.0,88,0.00,,---,0.00,VWS V14.00,2013-01-26 12:11:00,
2013-01-26 06:17:00,31.6,28.5,29.38,North,0,0.0,0.0,88,0.00,,---,0.00,VWS V14.00,2013-01-26 12:17:00,
2013-01-26 06:19:00,31.6,28.5,29.38,North,0,0.0,0.0,88,0.00,,---,0.00,VWS V14.00,2013-01-26 12:19:00,
2013-01-26 06:23:00,31.6,28.5,29.38,North,0,0.0,0.0,88,0.00,,---,0.00,VWS V14.00,2013-01-26 12:23:00,
2013-01-26 06:26:00,31.6,28.5,29.38,North,0,0.0,0.0,88,0.00,,---,0.00,VWS V14.00,2013-01-26 12:26:00,
2013-01-26 06:32:00,32.3,28.9,29.38,North,0,0.0,0.0,87,0.00,,---,0.00,VWS V14.00,2013-01-26 12:32:00,
2013-01-26 06:34:00,32.3,28.9,29.38,North,357,0.0,0.0,87,0.00,,---,0.00,VWS V14.00,2013-01-26 12:34:00,
2013-01-26 06:41:00,32.3,28.9,29.38,North,0,0.0,0.0,87,0.00,,---,0.00,VWS V14.00,2013-01-26 12:41:00,
2013-01-26 06:47:00,32.3,28.9,29.38,North,0,0.0,0.0,87,0.00,,---,0.00,VWS V14.00,2013-01-26 12:47:00,
2013-01-26 06:49:00,32.3,28.9,29.38,North,0,0.0,0.0,87,0.00,,---,0.00,VWS V14.00,2013-01-26 12:49:00,
2013-01-26 06:53:00,32.3,28.9,29.38,North,0,0.0,0.0,87,0.00,,---,0.00,VWS V14.00,2013-01-26 12:53:00,
2013-01-26 06:56:00,33.1,29.6,29.38,North,0,0.0,0.0,87,0.00,,---,0.00,VWS V14.00,2013-01-26 12:56:00,
2013-01-26 06:59:00,33.1,29.6,29.38,North,0,0.0,0.0,87,0.00,,---,0.00,VWS V14.00,2013-01-26 12:59:00,
2013-01-26 07:02:00,33.1,29.6,29.38,North,0,0.0,0.0,87,0.00,,---,0.00,VWS V14.00,2013-01-26 13:02:00,
2013-01-26 07:05:00,33.2,29.8,29.38,North,0,0.0,0.0,87,0.00,,---,0.00,VWS V14.00,2013-01-26 13:05:00,
2013-01-26 07:11:00,33.2,29.8,29.38,North,0,0.0,0.0,87,0.00,,---,0.00,VWS V14.00,2013-01-26 13:11:00,
2013-01-26 07:14:00,33.6,29.9,29.41,North,0,0.0,0.0,86,0.00,,---,0.00,VWS V14.00,2013-01-26 13:14:00,
2013-01-26 07:17:00,33.6,29.9,29.41,North,0,0.0,0.0,86,0.00,,---,0.00,VWS V14.00,2013-01-26 13:17:00,
2013-01-26 07:19:00,33.6,29.9,29.41,North,0,0.0,0.0,86,0.00,,---,0.00,VWS V14.00,2013-01-26 13:19:00,
2013-01-26 07:23:00,33.6,29.9,29.41,North,0,0.0,0.0,86,0.00,,---,0.00,VWS V14.00,2013-01-26 13:23:00,
2013-01-26 07:26:00,33.6,29.9,29.41,North,0,0.0,0.0,86,0.00,,---,0.00,VWS V14.00,2013-01-26 13:26:00,
2013-01-26 07:29:00,33.6,29.9,29.41,North,0,0.0,0.0,86,0.00,,---,0.00,VWS V14.00,2013-01-26 13:29:00,
2013-01-26 07:32:00,33.6,29.9,29.41,North,0,0.0,0.0,86,0.00,,---,0.00,VWS V14.00,2013-01-26 13:32:00,
2013-01-26 07:34:00,33.6,29.9,29.41,North,0,0.0,0.0,86,0.00,,---,0.00,VWS V14.00,2013-01-26 13:34:00,
2013-01-26 07:35:00,33.6,29.9,29.41,North,0,0.0,0.0,86,0.00,,---,0.00,VWS V14.00,2013-01-26 13:35:00,
2013-01-26 07:41:00,34.1,30.4,29.41,North,0,0.0,0.0,86,0.00,,---,0.00,VWS V14.00,2013-01-26 13:41:00,
2013-01-26 07:44:00,34.3,30.6,29.41,North,0,0.0,0.0,86,0.00,,---,0.00,VWS V14.00,2013-01-26 13:44:00,
2013-01-26 07:47:00,34.7,30.9,29.41,North,0,0.0,0.0,86,0.00,,---,0.00,VWS V14.00,2013-01-26 13:47:00,
2013-01-26 07:49:00,34.7,30.9,29.41,North,0,0.0,0.0,86,0.00,,---,0.00,VWS V14.00,2013-01-26 13:49:00,
2013-01-26 07:50:00,34.7,30.9,29.41,North,0,0.0,0.0,86,0.00,,---,0.00,VWS V14.00,2013-01-26 13:50:00,
2013-01-26 07:56:00,35.2,31.5,29.41,North,0,0.0,0.0,86,0.00,,---,0.00,VWS V14.00,2013-01-26 13:56:00,
2013-01-26 07:59:00,35.2,31.5,29.41,North,0,0.0,0.0,86,0.00,,---,0.00,VWS V14.00,2013-01-26 13:59:00,
2013-01-26 08:04:00,35.4,31.4,29.41,North,0,0.0,0.0,85,0.00,,---,0.00,VWS V14.00,2013-01-26 14:04:00,
2013-01-26 08:05:00,35.4,31.4,29.41,North,0,0.0,0.0,85,0.00,,---,0.00,VWS V14.00,2013-01-26 14:05:00,
2013-01-26 08:08:00,35.6,31.2,29.41,North,0,0.0,0.0,84,0.00,,---,0.00,VWS V14.00,2013-01-26 14:08:00,
2013-01-26 08:11:00,35.6,31.2,29.41,North,0,0.0,0.0,84,0.00,,---,0.00,VWS V14.00,2013-01-26 14:11:00,
2013-01-26 08:14:00,35.6,31.2,29.41,North,0,0.0,0.0,84,0.00,,---,0.00,VWS V14.00,2013-01-26 14:14:00,
2013-01-26 08:19:00,35.6,31.2,29.41,North,0,0.0,0.0,84,0.00,,---,0.00,VWS V14.00,2013-01-26 14:19:00,
2013-01-26 08:26:00,36.1,31.8,29.41,North,0,0.0,0.0,84,0.00,,---,0.00,VWS V14.00,2013-01-26 14:26:00,
2013-01-26 08:29:00,36.1,31.8,29.41,North,0,0.0,0.0,84,0.00,,---,0.00,VWS V14.00,2013-01-26 14:29:00,
2013-01-26 08:32:00,36.8,32.5,29.41,North,0,0.0,0.0,84,0.00,,---,0.00,VWS V14.00,2013-01-26 14:32:00,
2013-01-26 08:34:00,37.4,33.0,29.41,North,0,0.0,0.0,84,0.00,,---,0.00,VWS V14.00,2013-01-26 14:34:00,
2013-01-26 08:35:00,37.4,33.0,29.41,North,0,0.0,0.0,84,0.00,,---,0.00,VWS V14.00,2013-01-26 14:35:00,
2013-01-26 08:38:00,37.4,33.0,29.41,North,0,0.0,0.0,84,0.00,,---,0.00,VWS V14.00,2013-01-26 14:38:00,
2013-01-26 08:41:00,37.6,33.2,29.41,North,0,0.0,0.0,84,0.00,,---,0.00,VWS V14.00,2013-01-26 14:41:00,
2013-01-26 08:44:00,37.6,33.2,29.41,North,0,0.0,0.0,84,0.00,,---,0.00,VWS V14.00,2013-01-26 14:44:00,
2013-01-26 08:47:00,37.9,33.2,29.41,North,0,0.0,0.0,83,0.00,,---,0.00,VWS V14.00,2013-01-26 14:47:00,
2013-01-26 08:49:00,37.9,33.2,29.41,North,0,0.0,0.0,83,0.00,,---,0.00,VWS V14.00,2013-01-26 14:49:00,
2013-01-26 08:50:00,37.9,33.2,29.41,North,0,0.0,0.0,83,0.00,,---,0.00,VWS V14.00,2013-01-26 14:50:00,
2013-01-26 08:56:00,37.9,33.2,29.41,North,0,0.0,0.0,83,0.00,,---,0.00,VWS V14.00,2013-01-26 14:56:00,
2013-01-26 08:59:00,37.9,33.2,29.41,North,0,0.0,0.0,83,0.00,,---,0.00,VWS V14.00,2013-01-26 14:59:00,
2013-01-26 09:02:00,38.6,33.6,29.41,North,0,0.0,0.0,82,0.00,,---,0.00,VWS V14.00,2013-01-26 15:02:00,
2013-01-26 09:05:00,39.0,33.7,29.41,SSE,157,0.0,0.0,81,0.00,,---,0.00,VWS V14.00,2013-01-26 15:05:00,
2013-01-26 09:08:00,39.0,33.7,29.41,SSE,157,0.0,0.0,81,0.00,,---,0.00,VWS V14.00,2013-01-26 15:08:00,
2013-01-26 09:11:00,39.0,33.7,29.41,SSE,157,0.0,0.0,81,0.00,,---,0.00,VWS V14.00,2013-01-26 15:11:00,
2013-01-26 09:14:00,39.0,33.7,29.41,SSE,157,0.0,0.0,81,0.00,,---,0.00,VWS V14.00,2013-01-26 15:14:00,
2013-01-26 09:17:00,39.0,33.7,29.41,SSE,157,0.0,0.0,81,0.00,,---,0.00,VWS V14.00,2013-01-26 15:17:00,
2013-01-26 09:19:00,39.0,33.7,29.41,SSE,163,0.0,0.0,81,0.00,,---,0.00,VWS V14.00,2013-01-26 15:19:00,
2013-01-26 09:20:00,39.0,33.7,29.41,SSE,163,4.0,4.0,81,0.00,,---,0.00,VWS V14.00,2013-01-26 15:20:00,
2013-01-26 09:23:00,39.0,33.7,29.41,SSE,163,2.7,4.0,81,0.00,,---,0.00,VWS V14.00,2013-01-26 15:23:00,
2013-01-26 09:26:00,39.0,33.7,29.41,SSE,163,3.6,4.0,81,0.00,,---,0.00,VWS V14.00,2013-01-26 15:26:00,
2013-01-26 09:29:00,39.0,33.7,29.41,SSE,163,2.7,4.0,81,0.00,,---,0.00,VWS V14.00,2013-01-26 15:29:00,
2013-01-26 09:32:00,39.0,33.7,29.41,SSE,163,0.0,4.0,81,0.00,,---,0.00,VWS V14.00,2013-01-26 15:32:00,
2013-01-26 09:34:00,39.0,33.7,29.41,SSE,163,0.0,4.0,81,0.00,,---,0.00,VWS V14.00,2013-01-26 15:34:00,
2013-01-26 09:35:00,39.9,33.6,29.41,SSE,163,0.0,0.0,78,0.00,,---,0.00,VWS V14.00,2013-01-26 15:35:00,
2013-01-26 09:41:00,40.1,33.5,29.41,SSE,163,0.0,0.0,77,0.00,,---,0.00,VWS V14.00,2013-01-26 15:41:00,
2013-01-26 09:44:00,40.1,33.5,29.41,South,183,3.6,3.6,77,0.00,,---,0.00,VWS V14.00,2013-01-26 15:44:00,
2013-01-26 09:47:00,40.1,33.5,29.41,SSE,167,3.6,3.6,77,0.00,,---,0.00,VWS V14.00,2013-01-26 15:47:00,
2013-01-26 09:50:00,40.1,33.5,29.41,SSE,156,3.1,4.0,77,0.00,,---,0.00,VWS V14.00,2013-01-26 15:50:00,
2013-01-26 09:53:00,40.6,33.0,29.41,SSE,158,4.0,4.0,74,0.00,,---,0.00,VWS V14.00,2013-01-26 15:53:00,
2013-01-26 09:59:00,40.6,33.0,29.41,SSE,168,4.0,4.9,74,0.00,,---,0.00,VWS V14.00,2013-01-26 15:59:00,
2013-01-26 10:03:00,40.6,33.0,29.41,SSE,164,4.0,4.9,74,0.00,,---,0.00,VWS V14.00,2013-01-26 16:03:00,
2013-01-26 10:04:00,41.3,32.7,29.41,South,169,4.5,4.9,71,0.00,,---,0.00,VWS V14.00,2013-01-26 16:04:00,
2013-01-26 10:09:00,41.5,32.8,29.41,South,169,4.5,4.5,71,0.00,,---,0.00,VWS V14.00,2013-01-26 16:09:00,
2013-01-26 10:12:00,41.5,32.8,29.41,SSE,162,3.6,4.5,71,0.00,,---,0.00,VWS V14.00,2013-01-26 16:12:00,
2013-01-26 10:18:00,42.6,32.4,29.41,SSE,160,4.0,4.5,67,0.00,,---,0.00,VWS V14.00,2013-01-26 16:18:00,
2013-01-26 10:19:00,42.6,32.4,29.41,SSE,155,4.0,4.5,67,0.00,,---,0.00,VWS V14.00,2013-01-26 16:19:00,
2013-01-26 10:21:00,42.6,32.4,29.41,SSE,155,4.0,4.0,67,0.00,,---,0.00,VWS V14.00,2013-01-26 16:21:00,
2013-01-26 10:24:00,43.0,32.0,29.41,SSE,155,4.0,4.0,65,0.00,,---,0.00,VWS V14.00,2013-01-26 16:24:00,
2013-01-26 10:30:00,43.0,32.0,29.41,South,172,4.0,4.9,65,0.00,,---,0.00,VWS V14.00,2013-01-26 16:30:00,
2013-01-26 10:33:00,43.7,31.5,29.41,SSE,166,3.6,4.9,62,0.00,,---,0.00,VWS V14.00,2013-01-26 16:33:00,
2013-01-26 10:36:00,44.0,31.5,29.41,SSE,166,4.9,4.9,61,0.00,,---,0.00,VWS V14.00,2013-01-26 16:36:00,
2013-01-26 10:39:00,44.0,31.5,29.41,SE,135,3.6,4.9,61,0.00,,---,0.00,VWS V14.00,2013-01-26 16:39:00,
2013-01-26 10:42:00,44.0,31.5,29.41,SSE,165,3.6,4.9,61,0.00,,---,0.00,VWS V14.00,2013-01-26 16:42:00,
2013-01-26 10:45:00,44.8,31.3,29.41,SSE,161,3.6,4.9,59,0.00,,---,0.00,VWS V14.00,2013-01-26 16:45:00,
2013-01-26 10:51:00,44.8,31.3,29.41,SSE,161,4.0,4.0,59,0.00,,---,0.00,VWS V14.00,2013-01-26 16:51:00,
2013-01-26 10:54:00,44.8,31.3,29.41,SSE,166,3.6,4.0,59,0.00,,---,0.00,VWS V14.00,2013-01-26 16:54:00,
2013-01-26 10:57:00,45.5,31.1,29.41,South,172,3.6,4.0,57,0.00,,---,0.00,VWS V14.00,2013-01-26 16:57:00,
2013-01-26 11:00:00,45.7,30.9,29.41,SSW,193,4.9,4.9,56,0.00,,---,0.00,VWS V14.00,2013-01-26 17:00:00,
2013-01-26 11:03:00,45.7,30.9,29.41,SSW,193,4.9,4.9,56,0.00,,---,0.00,VWS V14.00,2013-01-26 17:03:00,
2013-01-26 11:04:00,46.2,30.9,29.41,SSE,156,4.0,4.9,55,0.00,,---,0.00,VWS V14.00,2013-01-26 17:04:00,
2013-01-26 11:09:00,46.4,30.7,29.41,South,174,4.0,4.0,54,0.00,,---,0.00,VWS V14.00,2013-01-26 17:09:00,
2013-01-26 11:12:00,46.7,31.0,29.41,South,178,4.0,4.0,54,0.00,,---,0.00,VWS V14.00,2013-01-26 17:12:00,
2013-01-26 11:18:00,46.9,30.7,29.41,SSE,166,4.0,4.0,53,0.00,,---,0.00,VWS V14.00,2013-01-26 17:18:00,
2013-01-26 11:19:00,47.5,31.2,29.41,SSE,166,3.6,4.0,53,0.00,,---,0.00,VWS V14.00,2013-01-26 17:19:00,
2013-01-26 11:24:00,47.8,31.1,29.41,South,170,2.7,5.4,52,0.00,,---,0.00,VWS V14.00,2013-01-26 17:24:00,
2013-01-26 11:27:00,47.8,31.1,29.41,SSE,166,5.4,5.4,52,0.00,,---,0.00,VWS V14.00,2013-01-26 17:27:00,
2013-01-26 11:33:00,48.5,30.8,29.41,SSE,163,4.0,5.4,50,0.00,,---,0.00,VWS V14.00,2013-01-26 17:33:00,
2013-01-26 11:34:00,48.5,30.8,29.41,SSE,163,4.0,5.4,50,0.00,,---,0.00,VWS V14.00,2013-01-26 17:34:00,
2013-01-26 11:36:00,48.5,30.8,29.41,SSE,163,4.0,4.0,50,0.00,,---,0.00,VWS V14.00,2013-01-26 17:36:00,
2013-01-26 11:39:00,49.1,31.3,29.41,SSE,157,4.9,4.9,50,0.00,,---,0.00,VWS V14.00,2013-01-26 17:39:00,
2013-01-26 11:42:00,49.1,31.3,29.41,SE,142,5.4,5.4,50,0.00,,---,0.00,VWS V14.00,2013-01-26 17:42:00,
2013-01-26 11:45:00,49.1,31.3,29.41,SE,142,5.4,5.4,50,0.00,,---,0.00,VWS V14.00,2013-01-26 17:45:00,
2013-01-26 11:49:00,50.2,30.7,29.41,SSE,161,6.3,6.3,47,0.00,,---,0.00,VWS V14.00,2013-01-26 17:49:00,
2013-01-26 11:51:00,50.2,30.7,29.41,SSE,161,5.4,6.3,47,0.00,,---,0.00,VWS V14.00,2013-01-26 17:51:00,
2013-01-26 11:54:00,50.2,30.7,29.41,SSE,161,5.4,6.3,47,0.00,,---,0.00,VWS V14.00,2013-01-26 17:54:00,
2013-01-26 12:00:00,50.7,30.7,29.38,SSE,160,7.2,7.2,46,0.00,,---,0.00,VWS V14.00,2013-01-26 18:00:00,
2013-01-26 12:03:00,51.2,31.2,29.38,SSE,154,5.8,7.2,46,0.00,,---,0.00,VWS V14.00,2013-01-26 18:03:00,
2013-01-26 12:04:00,51.2,31.2,29.38,SSE,165,6.7,7.6,46,0.00,,---,0.00,VWS V14.00,2013-01-26 18:04:00,
2013-01-26 12:09:00,51.6,31.0,29.38,SE,146,6.7,6.7,45,0.00,,---,0.00,VWS V14.00,2013-01-26 18:09:00,
2013-01-26 12:15:00,52.1,30.9,29.38,SSE,167,6.3,7.2,44,0.00,,---,0.00,VWS V14.00,2013-01-26 18:15:00,
2013-01-26 12:19:00,52.3,31.1,29.38,South,173,5.8,7.2,44,0.00,,---,0.00,VWS V14.00,2013-01-26 18:19:00,
2013-01-26 12:21:00,52.3,31.1,29.38,SSE,161,8.7,8.7,44,0.00,,---,0.00,VWS V14.00,2013-01-26 18:21:00,
2013-01-26 12:27:00,52.3,31.1,29.38,SSE,163,6.3,8.7,44,0.00,,---,0.00,VWS V14.00,2013-01-26 18:27:00,
2013-01-26 12:30:00,52.9,29.8,29.38,SSE,165,6.7,8.7,41,0.00,,---,0.00,VWS V14.00,2013-01-26 18:30:00,
2013-01-26 12:36:00,52.9,29.8,29.38,SSE,155,8.1,8.3,41,0.00,,---,0.00,VWS V14.00,2013-01-26 18:36:00,
2013-01-26 12:39:00,53.4,29.1,29.38,South,187,7.6,8.7,39,0.00,,---,0.00,VWS V14.00,2013-01-26 18:39:00,
2013-01-26 12:42:00,53.6,29.2,29.38,South,170,8.3,8.7,39,0.00,,---,0.00,VWS V14.00,2013-01-26 18:42:00,
2013-01-26 12:48:00,53.8,28.8,29.38,SSE,166,8.3,8.7,38,0.00,,---,0.00,VWS V14.00,2013-01-26 18:48:00,
2013-01-26 12:49:00,53.8,28.8,29.38,SSE,166,8.3,8.7,38,0.00,,---,0.00,VWS V14.00,2013-01-26 18:49:00,
2013-01-26 12:57:00,54.1,29.1,29.38,SSE,151,6.3,8.3,38,0.00,,---,0.00,VWS V14.00,2013-01-26 18:57:00,
2013-01-26 13:00:00,54.1,29.1,29.38,SSE,168,5.8,8.3,38,0.00,,---,0.00,VWS V14.00,2013-01-26 19:00:00,
2013-01-26 13:06:00,54.5,29.4,29.38,SSE,165,7.6,7.6,38,0.00,,---,0.00,VWS V14.00,2013-01-26 19:06:00,
2013-01-26 13:09:00,54.5,29.4,29.38,SSE,161,7.2,7.6,38,0.00,,---,0.00,VWS V14.00,2013-01-26 19:09:00,
2013-01-26 13:15:00,54.8,29.7,29.35,SSE,157,5.4,7.6,38,0.00,,---,0.00,VWS V14.00,2013-01-26 19:15:00,
2013-01-26 13:18:00,54.8,29.7,29.35,SSE,157,5.4,7.6,38,0.00,,---,0.00,VWS V14.00,2013-01-26 19:18:00,
2013-01-26 13:19:00,54.8,29.7,29.35,SSE,157,5.4,7.6,38,0.00,,---,0.00,VWS V14.00,2013-01-26 19:19:00,
2013-01-26 13:21:00,54.8,29.1,29.35,South,175,5.8,5.8,37,0.00,,---,0.00,VWS V14.00,2013-01-26 19:21:00,
2013-01-26 13:27:00,54.8,29.1,29.35,South,172,6.3,6.3,37,0.00,,---,0.00,VWS V14.00,2013-01-26 19:27:00,
2013-01-26 13:30:00,54.8,29.1,29.35,SSE,159,7.6,7.6,37,0.00,,---,0.00,VWS V14.00,2013-01-26 19:30:00,
2013-01-26 13:33:00,54.8,29.1,29.35,SSE,168,7.6,7.6,37,0.00,,---,0.00,VWS V14.00,2013-01-26 19:33:00,
2013-01-26 13:39:00,55.2,28.7,29.35,South,179,7.2,7.6,36,0.00,,---,0.00,VWS V14.00,2013-01-26 19:39:00,
2013-01-26 13:45:00,55.2,28.7,29.35,East,80,3.6,7.6,36,0.00,,---,0.00,VWS V14.00,2013-01-26 19:45:00,
2013-01-26 13:48:00,55.6,29.0,29.35,South,169,4.0,7.6,36,0.00,,---,0.00,VWS V14.00,2013-01-26 19:48:00,
2013-01-26 13:51:00,55.6,29.0,29.35,South,186,8.7,8.7,36,0.00,,---,0.00,VWS V14.00,2013-01-26 19:51:00,
2013-01-26 13:54:00,55.6,29.0,29.35,SSE,163,5.8,8.7,36,0.00,,---,0.00,VWS V14.00,2013-01-26 19:54:00,
2013-01-26 13:57:00,55.6,29.0,29.35,South,170,8.1,8.7,36,0.00,,---,0.00,VWS V14.00,2013-01-26 19:57:00,
2013-01-26 14:03:00,55.6,29.0,29.32,South,176,6.3,8.7,36,0.00,,---,0.00,VWS V14.00,2013-01-26 20:03:00,
2013-01-26 14:04:00,55.6,29.0,29.32,SSE,150,5.8,8.7,36,0.00,,---,0.00,VWS V14.00,2013-01-26 20:04:00,
2013-01-26 14:06:00,55.6,29.0,29.32,SSE,150,5.8,5.8,36,0.00,,---,0.00,VWS V14.00,2013-01-26 20:06:00,
2013-01-26 14:09:00,55.6,29.0,29.32,SSE,155,4.9,5.8,36,0.00,,---,0.00,VWS V14.00,2013-01-26 20:09:00,
2013-01-26 14:12:00,55.9,28.7,29.32,South,169,8.7,8.7,35,0.00,,---,0.00,VWS V14.00,2013-01-26 20:12:00,
2013-01-26 14:15:00,55.9,28.7,29.32,SE,131,5.4,8.7,35,0.00,,---,0.00,VWS V14.00,2013-01-26 20:15:00,
2013-01-26 14:18:00,56.1,28.8,29.32,South,171,9.6,9.6,35,0.00,,---,0.00,VWS V14.00,2013-01-26 20:18:00,
2013-01-26 14:21:00,56.3,29.0,29.32,South,176,6.3,9.6,35,0.00,,---,0.00,VWS V14.00,2013-01-26 20:21:00,
2013-01-26 14:24:00,56.3,29.0,29.32,SE,144,8.3,9.6,35,0.00,,---,0.00,VWS V14.00,2013-01-26 20:24:00,
2013-01-26 14:28:00,56.3,29.0,29.32,SSE,149,10.5,10.5,35,0.00,,---,0.00,VWS V14.00,2013-01-26 20:28:00,
2013-01-26 14:31:00,56.3,29.0,29.32,SSE,151,8.7,10.5,35,0.00,,---,0.00,VWS V14.00,2013-01-26 20:31:00,
2013-01-26 14:34:00,56.3,29.0,29.32,South,182,5.8,10.5,35,0.00,,---,0.00,VWS V14.00,2013-01-26 20:34:00,
2013-01-26 14:37:00,56.5,29.2,29.32,SSE,167,8.1,8.3,35,0.00,,---,0.00,VWS V14.00,2013-01-26 20:37:00,
2013-01-26 14:40:00,56.5,29.2,29.32,SSE,150,8.1,8.3,35,0.00,,---,0.00,VWS V14.00,2013-01-26 20:40:00,
2013-01-26 14:43:00,56.5,29.2,29.32,SSE,163,7.6,8.3,35,0.00,,---,0.00,VWS V14.00,2013-01-26 20:43:00,
2013-01-26 14:46:00,56.5,29.2,29.32,SSE,153,7.6,8.3,35,0.00,,---,0.00,VWS V14.00,2013-01-26 20:46:00,
2013-01-26 14:49:00,56.5,29.2,29.32,South,173,8.7,8.7,35,0.00,,---,0.00,VWS V14.00,2013-01-26 20:49:00,
2013-01-26 14:52:00,56.5,29.2,29.32,South,181,8.1,8.1,35,0.00,,---,0.00,VWS V14.00,2013-01-26 20:52:00,
2013-01-26 14:55:00,56.5,29.2,29.32,South,175,8.1,8.1,35,0.00,,---,0.00,VWS V14.00,2013-01-26 20:55:00,
2013-01-26 14:58:00,56.5,29.2,29.32,SE,146,8.3,10.5,35,0.00,,---,0.00,VWS V14.00,2013-01-26 20:58:00,
2013-01-26 15:01:00,56.5,29.2,29.32,SE,146,8.3,10.5,35,0.00,,---,0.00,VWS V14.00,2013-01-26 21:01:00,
2013-01-26 15:04:00,56.5,29.2,29.32,South,181,8.3,10.5,35,0.00,,---,0.00,VWS V14.00,2013-01-26 21:04:00,
2013-01-26 15:07:00,56.5,29.2,29.32,SSE,167,8.3,8.3,35,0.00,,---,0.00,VWS V14.00,2013-01-26 21:07:00,
2013-01-26 15:10:00,56.6,29.3,29.32,SSE,152,8.1,8.3,35,0.00,,---,0.00,VWS V14.00,2013-01-26 21:10:00,
2013-01-26 15:13:00,56.6,29.3,29.32,SSE,152,8.7,8.7,35,0.00,,---,0.00,VWS V14.00,2013-01-26 21:13:00,
2013-01-26 15:16:00,56.5,29.2,29.32,SE,136,6.3,8.7,35,0.00,,---,0.00,VWS V14.00,2013-01-26 21:16:00,
2013-01-26 15:19:00,56.5,29.2,29.32,SSE,157,7.6,8.7,35,0.00,,---,0.00,VWS V14.00,2013-01-26 21:19:00,
2013-01-26 15:22:00,56.5,29.2,29.32,South,177,8.7,8.7,35,0.00,,---,0.00,VWS V14.00,2013-01-26 21:22:00,
2013-01-26 15:28:00,55.4,28.2,29.32,SSE,166,6.3,8.7,35,0.00,,---,0.00,VWS V14.00,2013-01-26 21:28:00,
2013-01-26 15:31:00,55.0,27.9,29.32,South,177,5.4,8.7,35,0.00,,---,0.00,VWS V14.00,2013-01-26 21:31:00,
2013-01-26 15:34:00,55.0,27.9,29.32,South,177,5.4,8.7,35,0.00,,---,0.00,VWS V14.00,2013-01-26 21:34:00,
2013-01-26 15:37:00,54.7,27.6,29.32,SE,140,13.2,13.2,35,0.00,,---,0.00,VWS V14.00,2013-01-26 21:37:00,
2013-01-26 15:43:00,54.5,27.4,29.32,SSE,167,8.1,13.2,35,0.00,,---,0.00,VWS V14.00,2013-01-26 21:43:00,
2013-01-26 15:46:00,54.7,27.6,29.32,SSE,159,6.3,13.2,35,0.00,,---,0.00,VWS V14.00,2013-01-26 21:46:00,
2013-01-26 15:49:00,54.7,27.6,29.32,SSE,166,8.3,13.2,35,0.00,,---,0.00,VWS V14.00,2013-01-26 21:49:00,
2013-01-26 15:55:00,54.7,27.6,29.32,SSE,163,10.5,10.5,35,0.00,,---,0.00,VWS V14.00,2013-01-26 21:55:00,
2013-01-26 15:58:00,54.7,27.6,29.32,South,187,7.6,10.5,35,0.00,,---,0.00,VWS V14.00,2013-01-26 21:58:00,
2013-01-26 16:01:00,54.7,27.6,29.32,South,187,7.6,10.5,35,0.00,,---,0.00,VWS V14.00,2013-01-26 22:01:00,
2013-01-26 16:04:00,54.7,27.6,29.32,SSE,154,5.4,10.5,35,0.00,,---,0.00,VWS V14.00,2013-01-26 22:04:00,
2013-01-26 16:10:00,54.7,27.6,29.32,SSW,209,7.2,7.2,35,0.00,,---,0.00,VWS V14.00,2013-01-26 22:10:00,
2013-01-26 16:13:00,54.7,27.6,29.29,South,170,8.7,8.7,35,0.00,,---,0.00,VWS V14.00,2013-01-26 22:13:00,
2013-01-26 16:16:00,54.7,27.6,29.29,South,170,8.7,8.7,35,0.00,,---,0.00,VWS V14.00,2013-01-26 22:16:00,
2013-01-26 16:19:00,54.5,27.4,29.29,SSE,151,6.3,8.7,35,0.00,,---,0.00,VWS V14.00,2013-01-26 22:19:00,
2013-01-26 16:25:00,54.3,27.2,29.29,South,183,8.7,8.7,35,0.00,,---,0.00,VWS V14.00,2013-01-26 22:25:00,
2013-01-26 16:28:00,54.1,27.1,29.29,South,183,8.7,8.7,35,0.00,,---,0.00,VWS V14.00,2013-01-26 22:28:00,
2013-01-26 16:31:00,53.9,26.9,29.29,SSE,152,5.8,8.7,35,0.00,,---,0.00,VWS V14.00,2013-01-26 22:31:00,
2013-01-26 16:34:00,53.9,26.9,29.29,SSE,167,5.8,8.7,35,0.00,,---,0.00,VWS V14.00,2013-01-26 22:34:00,
2013-01-26 16:37:00,53.8,26.8,29.29,SE,142,8.7,8.7,35,0.00,,---,0.00,VWS V14.00,2013-01-26 22:37:00,
2013-01-26 16:43:00,53.4,26.5,29.29,SSE,155,10.5,10.5,35,0.00,,---,0.00,VWS V14.00,2013-01-26 22:43:00,
2013-01-26 16:49:00,53.0,26.8,29.29,South,170,5.4,10.5,36,0.00,,---,0.00,VWS V14.00,2013-01-26 22:49:00,
2013-01-26 16:52:00,53.0,26.8,29.29,South,169,5.8,5.8,36,0.00,,---,0.00,VWS V14.00,2013-01-26 22:52:00,
2013-01-26 16:55:00,52.9,26.7,29.29,South,169,5.8,5.8,36,0.00,,---,0.00,VWS V14.00,2013-01-26 22:55:00,
2013-01-26 16:58:00,52.9,26.7,29.32,South,171,5.8,5.8,36,0.00,,---,0.00,VWS V14.00,2013-01-26 22:58:00,
2013-01-26 17:01:00,52.7,26.5,29.32,South,171,5.8,5.8,36,0.00,,---,0.00,VWS V14.00,2013-01-26 23:01:00,
2013-01-26 17:04:00,52.7,26.5,29.32,South,171,7.6,7.6,36,0.00,,---,0.00,VWS V14.00,2013-01-26 23:04:00,
2013-01-26 17:07:00,52.7,26.5,29.32,SSE,163,6.7,7.6,36,0.00,,---,0.00,VWS V14.00,2013-01-26 23:07:00,
2013-01-26 17:10:00,52.7,26.5,29.32,SSE,166,8.7,8.7,36,0.00,,---,0.00,VWS V14.00,2013-01-26 23:10:00,
2013-01-26 17:16:00,52.3,26.2,29.32,SE,142,5.8,8.7,36,0.00,,---,0.00,VWS V14.00,2013-01-26 23:16:00,
2013-01-26 17:19:00,52.1,26.0,29.29,SSE,165,8.1,8.7,36,0.00,,---,0.00,VWS V14.00,2013-01-26 23:19:00,
2013-01-26 17:20:00,52.1,26.0,29.29,SSE,165,8.1,8.7,36,0.00,,---,0.00,VWS V14.00,2013-01-26 23:20:00,
2013-01-26 17:25:00,52.1,26.7,29.29,South,177,8.1,8.1,37,0.00,,---,0.00,VWS V14.00,2013-01-26 23:25:00,
2013-01-26 17:28:00,52.0,26.5,29.29,SSE,167,5.4,8.1,37,0.00,,---,0.00,VWS V14.00,2013-01-26 23:28:00,
2013-01-26 17:34:00,52.0,26.5,29.32,SE,143,6.3,8.1,37,0.00,,---,0.00,VWS V14.00,2013-01-26 23:34:00,
2013-01-26 17:37:00,51.8,26.4,29.32,SE,143,6.3,6.3,37,0.00,,---,0.00,VWS V14.00,2013-01-26 23:37:00,
2013-01-26 17:40:00,51.6,26.2,29.32,SSE,151,6.3,6.7,37,0.00,,---,0.00,VWS V14.00,2013-01-26 23:40:00,
2013-01-26 17:43:00,51.6,26.2,29.32,SE,143,6.3,6.7,37,0.00,,---,0.00,VWS V14.00,2013-01-26 23:43:00,
2013-01-26 17:49:00,51.4,26.0,29.32,SE,146,7.2,8.7,37,0.00,,---,0.00,VWS V14.00,2013-01-26 23:49:00,
2013-01-26 17:52:00,51.4,26.0,29.32,SSE,162,8.1,8.1,37,0.00,,---,0.00,VWS V14.00,2013-01-26 23:52:00,
2013-01-26 17:55:00,51.4,26.0,29.32,SSE,166,4.9,8.1,37,0.00,,---,0.00,VWS V14.00,2013-01-26 23:55:00,
2013-01-26 17:58:00,51.4,26.0,29.32,SSE,154,5.4,8.1,37,0.00,,---,0.00,VWS V14.00,2013-01-26 23:58:00,
2013-01-26 18:04:00,51.2,25.9,29.32,East,80,4.0,8.1,37,0.00,,---,0.00,VWS V14.00,2013-01-27 00:04:00,
2013-01-26 18:07:00,51.1,25.7,29.32,SE,144,3.1,4.0,37,0.00,,---,0.00,VWS V14.00,2013-01-27 00:07:00,
2013-01-26 18:10:00,51.1,25.7,29.32,SE,144,3.1,4.0,37,0.00,,---,0.00,VWS V14.00,2013-01-27 00:10:00,
2013-01-26 18:16:00,51.1,25.7,29.32,SSE,154,5.8,5.8,37,0.00,,---,0.00,VWS V14.00,2013-01-27 00:16:00,
2013-01-26 18:19:00,50.9,25.6,29.32,SSE,159,5.4,5.8,37,0.00,,---,0.00,VWS V14.00,2013-01-27 00:19:00,
2013-01-26 18:25:00,50.7,25.4,29.32,South,174,5.8,5.8,37,0.00,,---,0.00,VWS V14.00,2013-01-27 00:25:00,
2013-01-26 18:28:00,50.7,25.4,29.32,SSE,152,6.3,6.3,37,0.00,,---,0.00,VWS V14.00,2013-01-27 00:28:00,
2013-01-26 18:34:00,50.5,25.9,29.32,SSE,162,5.4,7.6,38,0.00,,---,0.00,VWS V14.00,2013-01-27 00:34:00,
2013-01-26 18:40:00,50.3,25.7,29.32,SSE,155,7.6,7.6,38,0.00,,---,0.00,VWS V14.00,2013-01-27 00:40:00,
2013-01-26 18:43:00,50.3,25.7,29.32,South,185,5.4,7.6,38,0.00,,---,0.00,VWS V14.00,2013-01-27 00:43:00,
2013-01-26 18:46:00,50.3,25.7,29.32,WSW,239,5.4,7.6,38,0.00,,---,0.00,VWS V14.00,2013-01-27 00:46:00,
2013-01-26 18:49:00,50.2,25.5,29.32,SSE,159,5.8,7.6,38,0.00,,---,0.00,VWS V14.00,2013-01-27 00:49:00,
2013-01-26 18:52:00,50.2,25.5,29.32,SSE,158,5.8,6.3,38,0.00,,---,0.00,VWS V14.00,2013-01-27 00:52:00,
2013-01-26 18:55:00,50.2,25.5,29.32,SE,136,5.8,6.3,38,0.00,,---,0.00,VWS V14.00,2013-01-27 00:55:00,
2013-01-26 19:02:00,50.0,26.0,29.32,SSE,164,6.3,6.3,39,0.00,,---,0.00,VWS V14.00,2013-01-27 01:02:00,
2013-01-26 19:04:00,50.0,26.0,29.32,SSE,162,6.3,6.3,39,0.00,,---,0.00,VWS V14.00,2013-01-27 01:04:00,
2013-01-26 19:08:00,49.8,25.9,29.32,South,172,6.3,6.3,39,0.00,,---,0.00,VWS V14.00,2013-01-27 01:08:00,
2013-01-26 19:14:00,49.8,25.9,29.32,South,172,7.6,7.6,39,0.00,,---,0.00,VWS V14.00,2013-01-27 01:14:00,
2013-01-26 19:19:00,49.6,26.3,29.32,SSE,161,7.6,7.6,40,0.00,,---,0.00,VWS V14.00,2013-01-27 01:19:00,
2013-01-26 19:20:00,49.6,26.3,29.32,SSE,161,7.6,7.6,40,0.00,,---,0.00,VWS V14.00,2013-01-27 01:20:00,
2013-01-26 19:23:00,49.6,26.3,29.32,South,170,8.7,8.7,40,0.00,,---,0.00,VWS V14.00,2013-01-27 01:23:00,
2013-01-26 19:29:00,49.3,25.4,29.32,SSE,160,8.3,8.7,39,0.00,,---,0.00,VWS V14.00,2013-01-27 01:29:00,
2013-01-26 19:32:00,49.1,25.2,29.32,SSE,160,8.3,8.7,39,0.00,,---,0.00,VWS V14.00,2013-01-27 01:32:00,
2013-01-26 19:34:00,49.1,25.2,29.32,SE,142,7.6,8.7,39,0.00,,---,0.00,VWS V14.00,2013-01-27 01:34:00,
2013-01-26 19:35:00,49.1,25.2,29.32,SE,142,7.6,7.6,39,0.00,,---,0.00,VWS V14.00,2013-01-27 01:35:00,
2013-01-26 19:41:00,49.1,25.2,29.32,South,171,6.3,7.6,39,0.00,,---,0.00,VWS V14.00,2013-01-27 01:41:00,
2013-01-26 19:44:00,49.1,25.8,29.32,South,170,6.7,7.6,40,0.00,,---,0.00,VWS V14.00,2013-01-27 01:44:00,
2013-01-26 19:49:00,48.7,26.1,29.32,SE,143,8.1,8.7,41,0.00,,---,0.00,VWS V14.00,2013-01-27 01:49:00,
2013-01-26 19:53:00,48.7,25.5,29.32,SE,143,8.1,8.1,40,0.00,,---,0.00,VWS V14.00,2013-01-27 01:53:00,
2013-01-26 19:56:00,48.7,25.5,29.32,South,170,8.1,8.1,40,0.00,,---,0.00,VWS V14.00,2013-01-27 01:56:00,
2013-01-26 19:59:00,48.7,25.5,29.32,South,170,8.1,8.1,40,0.00,,---,0.00,VWS V14.00,2013-01-27 01:59:00,
2013-01-26 20:04:00,48.5,25.9,29.32,South,170,8.1,8.1,41,0.00,,---,0.00,VWS V14.00,2013-01-27 02:04:00,
2013-01-26 20:11:00,48.5,25.9,29.32,SSE,160,11.0,11.0,41,0.00,,---,0.00,VWS V14.00,2013-01-27 02:11:00,
2013-01-26 20:14:00,48.4,25.2,29.32,SSE,155,11.0,11.0,40,0.00,,---,0.00,VWS V14.00,2013-01-27 02:14:00,
2013-01-26 20:17:00,48.2,25.6,29.32,South,173,11.4,11.4,41,0.00,,---,0.00,VWS V14.00,2013-01-27 02:17:00,
2013-01-26 20:19:00,48.2,25.6,29.32,SSE,166,8.7,11.4,41,0.00,,---,0.00,VWS V14.00,2013-01-27 02:19:00,
2013-01-26 20:26:00,48.0,25.4,29.32,South,180,7.6,11.0,41,0.00,,---,0.00,VWS V14.00,2013-01-27 02:26:00,
2013-01-26 20:29:00,48.0,25.4,29.32,SSE,160,10.5,11.0,41,0.00,,---,0.00,VWS V14.00,2013-01-27 02:29:00,
2013-01-26 20:32:00,47.8,25.3,29.32,South,173,10.1,11.0,41,0.00,,---,0.00,VWS V14.00,2013-01-27 02:32:00,
2013-01-26 20:38:00,47.6,25.1,29.32,SSE,162,8.1,8.1,41,0.00,,---,0.00,VWS V14.00,2013-01-27 02:38:00,
2013-01-26 20:44:00,47.5,25.0,29.32,SSE,166,8.7,8.7,41,0.00,,---,0.00,VWS V14.00,2013-01-27 02:44:00,
2013-01-26 20:47:00,47.5,25.0,29.32,SSE,166,5.8,8.7,41,0.00,,---,0.00,VWS V14.00,2013-01-27 02:47:00,
2013-01-26 20:49:00,47.5,25.0,29.32,SSE,167,6.3,8.7,41,0.00,,---,0.00,VWS V14.00,2013-01-27 02:49:00,
2013-01-26 20:50:00,47.5,25.0,29.32,SE,143,4.9,6.3,41,0.00,,---,0.00,VWS V14.00,2013-01-27 02:50:00,
2013-01-26 20:53:00,47.3,24.8,29.32,SSE,159,5.4,6.3,41,0.00,,---,0.00,VWS V14.00,2013-01-27 02:53:00,
2013-01-26 20:56:00,47.1,24.6,29.32,SSE,160,4.9,8.3,41,0.00,,---,0.00,VWS V14.00,2013-01-27 02:56:00,
2013-01-26 20:59:00,47.1,24.6,29.32,SSE,160,4.9,8.3,41,0.00,,---,0.00,VWS V14.00,2013-01-27 02:59:00,
2013-01-26 21:04:00,46.7,24.9,29.32,SSE,164,5.4,8.3,42,0.00,,---,0.00,VWS V14.00,2013-01-27 03:04:00,
2013-01-26 21:05:00,46.7,24.9,29.32,SSE,164,5.4,5.4,42,0.00,,---,0.00,VWS V14.00,2013-01-27 03:05:00,
2013-01-26 21:08:00,46.6,24.7,29.32,South,171,5.4,5.4,42,0.00,,---,0.00,VWS V14.00,2013-01-27 03:08:00,
2013-01-26 21:11:00,46.6,24.7,29.32,SSE,159,8.1,8.3,42,0.00,,---,0.00,VWS V14.00,2013-01-27 03:11:00,
2013-01-26 21:14:00,46.6,24.7,29.32,SSE,159,8.1,8.3,42,0.00,,---,0.00,VWS V14.00,2013-01-27 03:14:00,
2013-01-26 21:17:00,46.4,24.5,29.32,SE,145,5.4,8.3,42,0.00,,---,0.00,VWS V14.00,2013-01-27 03:17:00,
2013-01-26 21:19:00,46.4,24.5,29.32,South,169,5.8,8.3,42,0.00,,---,0.00,VWS V14.00,2013-01-27 03:19:00,
2013-01-26 21:20:00,46.4,24.5,29.32,South,169,5.8,5.8,42,0.00,,---,0.00,VWS V14.00,2013-01-27 03:20:00,
2013-01-26 21:26:00,46.4,25.1,29.32,South,169,6.7,6.7,43,0.00,,---,0.00,VWS V14.00,2013-01-27 03:26:00,
2013-01-26 21:29:00,46.4,25.1,29.32,South,169,6.7,6.7,43,0.00,,---,0.00,VWS V14.00,2013-01-27 03:29:00,
2013-01-26 21:34:00,46.2,25.0,29.32,South,170,8.7,8.7,43,0.00,,---,0.00,VWS V14.00,2013-01-27 03:34:00,
2013-01-26 21:35:00,46.2,25.0,29.32,South,170,8.7,8.7,43,0.00,,---,0.00,VWS V14.00,2013-01-27 03:35:00,
2013-01-26 21:41:00,46.0,25.3,29.32,SSE,154,6.3,8.7,44,0.00,,---,0.00,VWS V14.00,2013-01-27 03:41:00,
2013-01-26 21:44:00,46.0,25.3,29.32,SSE,163,5.4,8.7,44,0.00,,---,0.00,VWS V14.00,2013-01-27 03:44:00,
2013-01-26 21:47:00,46.0,25.9,29.32,ENE,73,3.6,8.7,45,0.00,,---,0.00,VWS V14.00,2013-01-27 03:47:00,
2013-01-26 21:49:00,46.0,25.9,29.32,South,169,5.8,8.7,45,0.00,,---,0.00,VWS V14.00,2013-01-27 03:49:00,
2013-01-26 21:56:00,45.8,25.7,29.35,SSE,157,5.4,7.6,45,0.00,,---,0.00,VWS V14.00,2013-01-27 03:56:00,
2013-01-26 22:02:00,45.8,26.2,29.32,SSE,167,3.6,7.6,46,0.00,,---,0.00,VWS V14.00,2013-01-27 04:02:00,
2013-01-26 22:08:00,45.8,26.2,29.32,SE,145,2.2,4.9,46,0.00,,---,0.00,VWS V14.00,2013-01-27 04:08:00,
2013-01-26 22:11:00,45.8,26.2,29.32,SE,134,4.0,4.9,46,0.00,,---,0.00,VWS V14.00,2013-01-27 04:11:00,
2013-01-26 22:14:00,45.8,26.2,29.32,SE,140,6.3,6.3,46,0.00,,---,0.00,VWS V14.00,2013-01-27 04:14:00,
2013-01-26 22:19:00,45.8,26.8,29.32,South,170,7.6,7.6,47,0.00,,---,0.00,VWS V14.00,2013-01-27 04:19:00,
2013-01-26 22:26:00,45.8,26.8,29.32,SSE,164,8.3,8.3,47,0.00,,---,0.00,VWS V14.00,2013-01-27 04:26:00,
2013-01-26 22:29:00,45.8,26.8,29.32,SSE,164,8.3,8.3,47,0.00,,---,0.00,VWS V14.00,2013-01-27 04:29:00,
2013-01-26 22:32:00,45.8,26.8,29.32,SSE,166,5.4,8.3,47,0.00,,---,0.00,VWS V14.00,2013-01-27 04:32:00,
2013-01-26 22:34:00,45.8,26.8,29.32,SE,133,5.4,8.3,47,0.00,,---,0.00,VWS V14.00,2013-01-27 04:34:00,
2013-01-26 22:35:00,45.8,26.8,29.32,SE,133,5.4,5.4,47,0.00,,---,0.00,VWS V14.00,2013-01-27 04:35:00,
2013-01-26 22:38:00,46.0,26.9,29.32,South,171,8.3,8.3,47,0.00,,---,0.00,VWS V14.00,2013-01-27 04:38:00,
2013-01-26 22:44:00,46.0,26.9,29.32,South,184,9.2,9.2,47,0.00,,---,0.00,VWS V14.00,2013-01-27 04:44:00,
2013-01-26 22:47:00,46.0,27.4,29.32,South,184,9.2,9.2,48,0.00,,---,0.00,VWS V14.00,2013-01-27 04:47:00,
2013-01-26 22:49:00,46.0,27.4,29.32,South,184,9.2,9.2,48,0.00,,---,0.00,VWS V14.00,2013-01-27 04:49:00,
2013-01-26 22:50:00,46.0,27.4,29.32,South,184,9.2,9.2,48,0.00,,---,0.00,VWS V14.00,2013-01-27 04:50:00,
2013-01-26 22:56:00,45.8,27.3,29.32,SE,145,6.3,9.2,48,0.00,,---,0.00,VWS V14.00,2013-01-27 04:56:00,
2013-01-26 22:59:00,45.8,27.3,29.32,SSE,164,5.4,9.2,48,0.00,,---,0.00,VWS V14.00,2013-01-27 04:59:00,
2013-01-26 23:02:00,45.8,27.3,29.32,SSE,164,5.4,9.2,48,0.00,,---,0.00,VWS V14.00,2013-01-27 05:02:00,
2013-01-26 23:04:00,45.8,27.3,29.32,SE,131,8.3,9.2,48,0.00,,---,0.00,VWS V14.00,2013-01-27 05:04:00,
2013-01-26 23:08:00,45.8,27.3,29.32,SSE,153,6.3,8.3,48,0.00,,---,0.00,VWS V14.00,2013-01-27 05:08:00,
2013-01-26 23:14:00,45.8,27.3,29.32,SSE,153,8.3,8.3,48,0.00,,---,0.00,VWS V14.00,2013-01-27 05:14:00,
2013-01-26 23:17:00,45.8,27.3,29.32,SSE,166,5.4,8.3,48,0.00,,---,0.00,VWS V14.00,2013-01-27 05:17:00,
2013-01-26 23:19:00,45.8,27.3,29.32,SSE,166,5.4,8.3,48,0.00,,---,0.00,VWS V14.00,2013-01-27 05:19:00,
2013-01-26 23:23:00,45.8,27.3,29.32,SSE,150,5.4,6.3,48,0.00,,---,0.00,VWS V14.00,2013-01-27 05:23:00,
2013-01-26 23:26:00,45.8,27.3,29.32,South,170,4.0,7.6,48,0.00,,---,0.00,VWS V14.00,2013-01-27 05:26:00,
2013-01-26 23:33:00,45.7,27.1,29.32,SSE,153,8.1,8.1,48,0.00,,---,0.00,VWS V14.00,2013-01-27 05:33:00,
2013-01-26 23:34:00,45.7,27.1,29.32,SSE,153,8.1,8.1,48,0.00,,---,0.00,VWS V14.00,2013-01-27 05:34:00,
2013-01-26 23:39:00,45.7,27.1,29.32,SSE,159,8.7,8.7,48,0.00,,---,0.00,VWS V14.00,2013-01-27 05:39:00,
2013-01-26 23:45:00,45.7,27.6,29.32,SSE,167,5.8,8.7,49,0.00,,---,0.00,VWS V14.00,2013-01-27 05:45:00,
2013-01-26 23:48:00,45.7,27.6,29.32,SSE,167,5.8,8.7,49,0.00,,---,0.00,VWS V14.00,2013-01-27 05:48:00,
2013-01-26 23:49:00,45.7,27.6,29.32,SSE,167,5.8,8.7,49,0.00,,---,0.00,VWS V14.00,2013-01-27 05:49:00,
2013-01-26 23:51:00,45.7,27.6,29.32,SSE,167,5.8,5.8,49,0.00,,---,0.00,VWS V14.00,2013-01-27 05:51:00,
2013-01-26 23:54:00,45.7,27.6,29.32,SE,140,8.1,8.1,49,0.00,,---,0.00,VWS V14.00,2013-01-27 05:54:00,
2013-01-26 23:57:00,45.7,27.6,29.32,SSE,164,5.8,8.1,49,0.00,,---,0.00,VWS V14.00,2013-01-27 05:57:00,